sensor_id;sensor_type;location;lat;lon;timestamp;temperature;humidity
10249;DHT22;5169;50.560;9.714;2024-03-22T00:02:08;7.30;99.90
10249;DHT22;5169;50.560;9.714;2024-03-22T00:04:37;7.30;99.90
10249;DHT22;5169;50.560;9.714;2024-03-22T00:07:02;7.30;99.90
10249;DHT22;5169;50.560;9.714;2024-03-22T00:09:28;7.20;99.90
10249;DHT22;5169;50.560;9.714;2024-03-22T00:11:54;7.20;99.90
10249;DHT22;5169;50.560;9.714;2024-03-22T00:14:19;7.20;99.90
10249;DHT22;5169;50.560;9.714;2024-03-22T00:16:47;7.30;99.90
10249;DHT22;5169;50.560;9.714;2024-03-22T00:19:13;7.40;99.90
10249;DHT22;5169;50.560;9.714;2024-03-22T00:21:39;7.50;99.90
10249;DHT22;5169;50.560;9.714;2024-03-22T00:24:04;7.50;99.90
10249;DHT22;5169;50.560;9.714;2024-03-22T00:26:30;7.50;99.90
10249;DHT22;5169;50.560;9.714;2024-03-22T00:28:56;7.40;99.90
10249;DHT22;5169;50.560;9.714;2024-03-22T00:31:24;7.40;99.90
10249;DHT22;5169;50.560;9.714;2024-03-22T00:33:50;7.40;99.90
10249;DHT22;5169;50.560;9.714;2024-03-22T00:36:16;7.40;99.90
10249;DHT22;5169;50.560;9.714;2024-03-22T00:38:41;7.40;99.90
10249;DHT22;5169;50.560;9.714;2024-03-22T00:41:07;7.40;99.90
10249;DHT22;5169;50.560;9.714;2024-03-22T00:43:33;7.40;99.90
10249;DHT22;5169;50.560;9.714;2024-03-22T00:45:58;7.30;99.90
10249;DHT22;5169;50.560;9.714;2024-03-22T00:48:24;7.30;99.90
10249;DHT22;5169;50.560;9.714;2024-03-22T00:50:50;7.20;99.90
10249;DHT22;5169;50.560;9.714;2024-03-22T00:53:15;7.20;99.90
10249;DHT22;5169;50.560;9.714;2024-03-22T00:55:43;7.20;99.90
10249;DHT22;5169;50.560;9.714;2024-03-22T00:58:08;7.20;99.90
10249;DHT22;5169;50.560;9.714;2024-03-22T01:00:34;7.20;99.90
10249;DHT22;5169;50.560;9.714;2024-03-22T01:03:02;7.30;99.90
10249;DHT22;5169;50.560;9.714;2024-03-22T01:05:31;7.20;99.90
10249;DHT22;5169;50.560;9.714;2024-03-22T01:07:59;7.30;99.90
10249;DHT22;5169;50.560;9.714;2024-03-22T01:10:24;7.30;99.90
10249;DHT22;5169;50.560;9.714;2024-03-22T01:12:50;7.20;99.90
10249;DHT22;5169;50.560;9.714;2024-03-22T01:15:15;7.20;99.90
10249;DHT22;5169;50.560;9.714;2024-03-22T01:17:41;7.20;99.90
10249;DHT22;5169;50.560;9.714;2024-03-22T01:20:07;7.10;99.90
10249;DHT22;5169;50.560;9.714;2024-03-22T01:22:35;7.10;99.90
10249;DHT22;5169;50.560;9.714;2024-03-22T01:25:03;7.00;99.90
10249;DHT22;5169;50.560;9.714;2024-03-22T01:27:30;7.00;99.90
10249;DHT22;5169;50.560;9.714;2024-03-22T01:29:56;7.00;99.90
10249;DHT22;5169;50.560;9.714;2024-03-22T01:32:28;7.00;99.90
10249;DHT22;5169;50.560;9.714;2024-03-22T01:34:57;7.00;99.90
10249;DHT22;5169;50.560;9.714;2024-03-22T01:37:23;7.00;99.90
10249;DHT22;5169;50.560;9.714;2024-03-22T01:39:51;6.90;99.90
10249;DHT22;5169;50.560;9.714;2024-03-22T01:42:16;6.80;99.90
10249;DHT22;5169;50.560;9.714;2024-03-22T01:44:48;6.90;99.90
10249;DHT22;5169;50.560;9.714;2024-03-22T01:47:14;7.00;99.90
10249;DHT22;5169;50.560;9.714;2024-03-22T01:49:40;6.90;99.90
10249;DHT22;5169;50.560;9.714;2024-03-22T01:52:06;6.90;99.90
10249;DHT22;5169;50.560;9.714;2024-03-22T01:54:31;6.90;99.90
10249;DHT22;5169;50.560;9.714;2024-03-22T01:56:57;6.80;99.90
10249;DHT22;5169;50.560;9.714;2024-03-22T01:59:23;6.90;99.90
10249;DHT22;5169;50.560;9.714;2024-03-22T02:01:49;7.00;99.90
10249;DHT22;5169;50.560;9.714;2024-03-22T02:04:14;7.00;99.90
10249;DHT22;5169;50.560;9.714;2024-03-22T02:06:40;7.00;99.90
10249;DHT22;5169;50.560;9.714;2024-03-22T02:09:08;7.10;99.90
10249;DHT22;5169;50.560;9.714;2024-03-22T02:11:37;7.10;99.90
10249;DHT22;5169;50.560;9.714;2024-03-22T02:14:05;7.10;99.90
10249;DHT22;5169;50.560;9.714;2024-03-22T02:16:31;7.10;99.90
10249;DHT22;5169;50.560;9.714;2024-03-22T02:18:56;7.00;99.90
10249;DHT22;5169;50.560;9.714;2024-03-22T02:21:24;7.10;99.90
10249;DHT22;5169;50.560;9.714;2024-03-22T02:23:52;7.10;99.90
10249;DHT22;5169;50.560;9.714;2024-03-22T02:26:18;7.00;99.90
10249;DHT22;5169;50.560;9.714;2024-03-22T02:28:43;7.00;99.90
10249;DHT22;5169;50.560;9.714;2024-03-22T02:31:09;6.80;99.90
10249;DHT22;5169;50.560;9.714;2024-03-22T02:33:34;6.80;99.90
10249;DHT22;5169;50.560;9.714;2024-03-22T02:36:02;6.90;99.90
10249;DHT22;5169;50.560;9.714;2024-03-22T02:38:28;7.00;99.90
10249;DHT22;5169;50.560;9.714;2024-03-22T02:40:53;7.10;99.90
10249;DHT22;5169;50.560;9.714;2024-03-22T02:43:21;7.10;99.90
10249;DHT22;5169;50.560;9.714;2024-03-22T02:45:47;7.00;99.90
10249;DHT22;5169;50.560;9.714;2024-03-22T02:48:13;6.90;99.90
10249;DHT22;5169;50.560;9.714;2024-03-22T02:50:39;6.80;99.90
10249;DHT22;5169;50.560;9.714;2024-03-22T02:53:05;6.80;99.90
10249;DHT22;5169;50.560;9.714;2024-03-22T02:55:39;6.80;99.90
10249;DHT22;5169;50.560;9.714;2024-03-22T02:58:08;6.80;99.90
10249;DHT22;5169;50.560;9.714;2024-03-22T03:00:37;6.70;99.90
10249;DHT22;5169;50.560;9.714;2024-03-22T03:03:05;6.80;99.90
10249;DHT22;5169;50.560;9.714;2024-03-22T03:05:31;6.80;99.90
10249;DHT22;5169;50.560;9.714;2024-03-22T03:08:02;6.80;99.90
10249;DHT22;5169;50.560;9.714;2024-03-22T03:10:30;6.90;99.90
10249;DHT22;5169;50.560;9.714;2024-03-22T03:12:56;6.90;99.90
10249;DHT22;5169;50.560;9.714;2024-03-22T03:15:21;6.90;99.90
10249;DHT22;5169;50.560;9.714;2024-03-22T03:17:47;6.90;99.90
10249;DHT22;5169;50.560;9.714;2024-03-22T03:20:13;6.90;99.90
10249;DHT22;5169;50.560;9.714;2024-03-22T03:22:41;6.90;99.90
10249;DHT22;5169;50.560;9.714;2024-03-22T03:25:09;6.90;99.90
10249;DHT22;5169;50.560;9.714;2024-03-22T03:27:35;6.90;99.90
10249;DHT22;5169;50.560;9.714;2024-03-22T03:30:01;6.90;99.90
10249;DHT22;5169;50.560;9.714;2024-03-22T03:32:27;7.00;99.90
10249;DHT22;5169;50.560;9.714;2024-03-22T03:34:53;6.90;99.90
10249;DHT22;5169;50.560;9.714;2024-03-22T03:37:21;6.90;99.90
10249;DHT22;5169;50.560;9.714;2024-03-22T03:39:47;6.80;99.90
10249;DHT22;5169;50.560;9.714;2024-03-22T03:42:12;6.80;99.90
10249;DHT22;5169;50.560;9.714;2024-03-22T03:44:40;6.80;99.90
10249;DHT22;5169;50.560;9.714;2024-03-22T03:47:06;6.80;99.90
10249;DHT22;5169;50.560;9.714;2024-03-22T03:49:32;6.80;99.90
10249;DHT22;5169;50.560;9.714;2024-03-22T03:51:58;6.70;99.90
10249;DHT22;5169;50.560;9.714;2024-03-22T03:54:25;6.80;99.90
10249;DHT22;5169;50.560;9.714;2024-03-22T03:56:53;6.70;99.90
10249;DHT22;5169;50.560;9.714;2024-03-22T03:59:19;6.70;99.90
10249;DHT22;5169;50.560;9.714;2024-03-22T04:01:46;6.70;99.90
10249;DHT22;5169;50.560;9.714;2024-03-22T04:04:13;6.60;99.90
10249;DHT22;5169;50.560;9.714;2024-03-22T04:06:38;6.70;99.90
10249;DHT22;5169;50.560;9.714;2024-03-22T04:09:04;6.60;99.90
10249;DHT22;5169;50.560;9.714;2024-03-22T04:11:32;6.60;99.90
10249;DHT22;5169;50.560;9.714;2024-03-22T04:13:57;6.50;99.90
10249;DHT22;5169;50.560;9.714;2024-03-22T04:16:23;6.50;99.90
10249;DHT22;5169;50.560;9.714;2024-03-22T04:18:49;6.50;99.90
10249;DHT22;5169;50.560;9.714;2024-03-22T04:21:17;6.50;99.90
10249;DHT22;5169;50.560;9.714;2024-03-22T04:23:45;6.60;99.90
10249;DHT22;5169;50.560;9.714;2024-03-22T04:26:10;6.60;99.90
10249;DHT22;5169;50.560;9.714;2024-03-22T04:28:36;6.60;99.90
10249;DHT22;5169;50.560;9.714;2024-03-22T04:31:04;6.60;99.90
10249;DHT22;5169;50.560;9.714;2024-03-22T04:33:31;6.70;99.90
10249;DHT22;5169;50.560;9.714;2024-03-22T04:35:57;6.80;99.90
10249;DHT22;5169;50.560;9.714;2024-03-22T04:38:24;6.90;99.90
10249;DHT22;5169;50.560;9.714;2024-03-22T04:40:50;6.90;99.90
10249;DHT22;5169;50.560;9.714;2024-03-22T04:43:16;6.90;99.90
10249;DHT22;5169;50.560;9.714;2024-03-22T04:45:43;7.00;99.90
10249;DHT22;5169;50.560;9.714;2024-03-22T04:48:13;7.00;99.90
10249;DHT22;5169;50.560;9.714;2024-03-22T04:50:39;7.00;99.90
10249;DHT22;5169;50.560;9.714;2024-03-22T04:53:07;7.20;99.90
10249;DHT22;5169;50.560;9.714;2024-03-22T04:55:33;7.20;99.90
10249;DHT22;5169;50.560;9.714;2024-03-22T04:57:58;7.20;99.90
10249;DHT22;5169;50.560;9.714;2024-03-22T05:00:24;7.20;99.90
10249;DHT22;5169;50.560;9.714;2024-03-22T05:02:53;7.30;99.90
10249;DHT22;5169;50.560;9.714;2024-03-22T05:05:20;7.30;99.90
10249;DHT22;5169;50.560;9.714;2024-03-22T05:07:46;7.30;99.90
10249;DHT22;5169;50.560;9.714;2024-03-22T05:10:12;7.30;99.90
10249;DHT22;5169;50.560;9.714;2024-03-22T05:12:42;7.30;99.90
10249;DHT22;5169;50.560;9.714;2024-03-22T05:15:07;7.30;99.90
10249;DHT22;5169;50.560;9.714;2024-03-22T05:17:33;7.40;99.90
10249;DHT22;5169;50.560;9.714;2024-03-22T05:19:59;7.40;99.90
10249;DHT22;5169;50.560;9.714;2024-03-22T05:22:25;7.40;99.90
10249;DHT22;5169;50.560;9.714;2024-03-22T05:24:50;7.40;99.90
10249;DHT22;5169;50.560;9.714;2024-03-22T05:27:18;7.30;99.90
10249;DHT22;5169;50.560;9.714;2024-03-22T05:29:44;7.40;99.90
10249;DHT22;5169;50.560;9.714;2024-03-22T05:32:12;7.40;99.90
10249;DHT22;5169;50.560;9.714;2024-03-22T05:34:37;7.40;99.90
10249;DHT22;5169;50.560;9.714;2024-03-22T05:37:10;7.60;99.90
10249;DHT22;5169;50.560;9.714;2024-03-22T05:39:36;7.60;99.90
10249;DHT22;5169;50.560;9.714;2024-03-22T05:42:02;7.50;99.90
10249;DHT22;5169;50.560;9.714;2024-03-22T05:44:29;7.60;99.90
10249;DHT22;5169;50.560;9.714;2024-03-22T05:46:55;7.70;99.90
10249;DHT22;5169;50.560;9.714;2024-03-22T05:49:21;7.90;99.90
10249;DHT22;5169;50.560;9.714;2024-03-22T05:51:46;7.90;99.90
10249;DHT22;5169;50.560;9.714;2024-03-22T05:54:14;7.90;99.90
10249;DHT22;5169;50.560;9.714;2024-03-22T05:56:40;8.00;99.90
10249;DHT22;5169;50.560;9.714;2024-03-22T05:59:08;8.00;99.90
10249;DHT22;5169;50.560;9.714;2024-03-22T06:01:36;8.00;99.90
10249;DHT22;5169;50.560;9.714;2024-03-22T06:04:04;8.10;99.90
10249;DHT22;5169;50.560;9.714;2024-03-22T06:06:34;8.10;99.90
10249;DHT22;5169;50.560;9.714;2024-03-22T06:09:03;8.10;99.90
10249;DHT22;5169;50.560;9.714;2024-03-22T06:11:39;8.10;99.90
10249;DHT22;5169;50.560;9.714;2024-03-22T06:14:11;8.10;99.90
10249;DHT22;5169;50.560;9.714;2024-03-22T06:16:37;8.10;99.90
10249;DHT22;5169;50.560;9.714;2024-03-22T06:19:05;8.10;99.90
10249;DHT22;5169;50.560;9.714;2024-03-22T06:21:30;8.10;99.90
10249;DHT22;5169;50.560;9.714;2024-03-22T06:23:56;8.10;99.90
10249;DHT22;5169;50.560;9.714;2024-03-22T06:26:24;8.10;99.90
10249;DHT22;5169;50.560;9.714;2024-03-22T06:28:52;8.10;99.90
10249;DHT22;5169;50.560;9.714;2024-03-22T06:31:17;8.10;99.90
10249;DHT22;5169;50.560;9.714;2024-03-22T06:33:43;8.10;99.90
10249;DHT22;5169;50.560;9.714;2024-03-22T06:36:08;8.00;99.90
10249;DHT22;5169;50.560;9.714;2024-03-22T06:38:35;8.00;99.90
10249;DHT22;5169;50.560;9.714;2024-03-22T06:41:03;8.00;99.90
10249;DHT22;5169;50.560;9.714;2024-03-22T06:43:29;8.10;99.90
10249;DHT22;5169;50.560;9.714;2024-03-22T06:45:55;8.10;99.90
10249;DHT22;5169;50.560;9.714;2024-03-22T06:48:20;8.30;99.90
10249;DHT22;5169;50.560;9.714;2024-03-22T06:50:48;8.40;99.90
10249;DHT22;5169;50.560;9.714;2024-03-22T06:53:13;8.50;99.90
10249;DHT22;5169;50.560;9.714;2024-03-22T06:55:39;8.60;99.90
10249;DHT22;5169;50.560;9.714;2024-03-22T06:58:05;8.70;99.90
10249;DHT22;5169;50.560;9.714;2024-03-22T07:00:30;8.70;99.90
10249;DHT22;5169;50.560;9.714;2024-03-22T07:02:56;8.70;99.90
10249;DHT22;5169;50.560;9.714;2024-03-22T07:05:21;8.70;99.90
10249;DHT22;5169;50.560;9.714;2024-03-22T07:07:47;8.60;99.90
10249;DHT22;5169;50.560;9.714;2024-03-22T07:10:13;8.50;99.90
10249;DHT22;5169;50.560;9.714;2024-03-22T07:12:40;8.50;99.90
10249;DHT22;5169;50.560;9.714;2024-03-22T07:15:06;8.50;99.90
10249;DHT22;5169;50.560;9.714;2024-03-22T07:17:32;8.50;99.90
10249;DHT22;5169;50.560;9.714;2024-03-22T07:19:57;8.60;99.90
10249;DHT22;5169;50.560;9.714;2024-03-22T07:22:23;8.60;99.90
10249;DHT22;5169;50.560;9.714;2024-03-22T07:24:51;8.80;99.90
10249;DHT22;5169;50.560;9.714;2024-03-22T07:27:16;8.90;99.90
10249;DHT22;5169;50.560;9.714;2024-03-22T07:29:42;9.10;99.90
10249;DHT22;5169;50.560;9.714;2024-03-22T07:32:09;9.10;99.90
10249;DHT22;5169;50.560;9.714;2024-03-22T07:34:37;9.10;99.90
10249;DHT22;5169;50.560;9.714;2024-03-22T07:37:05;9.10;99.90
10249;DHT22;5169;50.560;9.714;2024-03-22T07:39:30;9.20;99.90
10249;DHT22;5169;50.560;9.714;2024-03-22T07:42:00;9.30;99.90
10249;DHT22;5169;50.560;9.714;2024-03-22T07:44:28;9.30;99.90
10249;DHT22;5169;50.560;9.714;2024-03-22T07:46:55;9.40;99.90
10249;DHT22;5169;50.560;9.714;2024-03-22T07:49:21;9.50;99.90
10249;DHT22;5169;50.560;9.714;2024-03-22T07:51:47;9.50;99.90
10249;DHT22;5169;50.560;9.714;2024-03-22T07:54:12;9.60;99.90
10249;DHT22;5169;50.560;9.714;2024-03-22T07:56:38;9.60;99.90
10249;DHT22;5169;50.560;9.714;2024-03-22T07:59:03;9.60;99.90
10249;DHT22;5169;50.560;9.714;2024-03-22T08:01:30;9.60;99.90
10249;DHT22;5169;50.560;9.714;2024-03-22T08:03:55;9.60;99.90
10249;DHT22;5169;50.560;9.714;2024-03-22T08:06:23;9.70;99.90
10249;DHT22;5169;50.560;9.714;2024-03-22T08:08:49;9.70;99.90
10249;DHT22;5169;50.560;9.714;2024-03-22T08:11:17;9.90;99.90
10249;DHT22;5169;50.560;9.714;2024-03-22T08:13:45;10.00;99.90
10249;DHT22;5169;50.560;9.714;2024-03-22T08:16:10;10.00;99.90
10249;DHT22;5169;50.560;9.714;2024-03-22T08:18:36;10.00;99.90
10249;DHT22;5169;50.560;9.714;2024-03-22T08:21:06;10.10;99.90
10249;DHT22;5169;50.560;9.714;2024-03-22T08:23:32;10.20;99.90
10249;DHT22;5169;50.560;9.714;2024-03-22T08:26:00;10.20;99.90
10249;DHT22;5169;50.560;9.714;2024-03-22T08:28:28;10.20;99.90
10249;DHT22;5169;50.560;9.714;2024-03-22T08:31:03;10.30;99.90
10249;DHT22;5169;50.560;9.714;2024-03-22T08:33:31;10.30;99.90
10249;DHT22;5169;50.560;9.714;2024-03-22T08:35:57;10.30;99.90
10249;DHT22;5169;50.560;9.714;2024-03-22T08:38:26;10.40;99.90
10249;DHT22;5169;50.560;9.714;2024-03-22T08:40:52;10.40;99.90
10249;DHT22;5169;50.560;9.714;2024-03-22T08:43:21;10.50;99.90
10249;DHT22;5169;50.560;9.714;2024-03-22T08:45:48;10.70;99.90
10249;DHT22;5169;50.560;9.714;2024-03-22T08:48:13;10.70;99.90
10249;DHT22;5169;50.560;9.714;2024-03-22T08:50:42;10.90;99.90
10249;DHT22;5169;50.560;9.714;2024-03-22T08:53:08;11.00;99.90
10249;DHT22;5169;50.560;9.714;2024-03-22T08:55:33;11.00;99.90
10249;DHT22;5169;50.560;9.714;2024-03-22T08:58:02;11.10;99.90
10249;DHT22;5169;50.560;9.714;2024-03-22T09:00:29;11.20;99.90
10249;DHT22;5169;50.560;9.714;2024-03-22T09:02:56;11.20;99.90
10249;DHT22;5169;50.560;9.714;2024-03-22T09:05:22;11.10;99.90
10249;DHT22;5169;50.560;9.714;2024-03-22T09:07:50;11.10;99.90
10249;DHT22;5169;50.560;9.714;2024-03-22T09:10:20;11.20;99.90
10249;DHT22;5169;50.560;9.714;2024-03-22T09:12:46;11.30;99.90
10249;DHT22;5169;50.560;9.714;2024-03-22T09:15:14;11.50;99.90
10249;DHT22;5169;50.560;9.714;2024-03-22T09:17:39;11.60;99.90
10249;DHT22;5169;50.560;9.714;2024-03-22T09:20:08;11.60;99.90
10249;DHT22;5169;50.560;9.714;2024-03-22T09:22:34;11.70;99.90
10249;DHT22;5169;50.560;9.714;2024-03-22T09:25:01;11.80;99.90
10249;DHT22;5169;50.560;9.714;2024-03-22T09:27:27;12.00;99.90
10249;DHT22;5169;50.560;9.714;2024-03-22T09:29:52;12.10;99.90
10249;DHT22;5169;50.560;9.714;2024-03-22T09:32:18;12.30;99.90
10249;DHT22;5169;50.560;9.714;2024-03-22T09:34:44;12.60;99.90
10249;DHT22;5169;50.560;9.714;2024-03-22T09:37:09;13.10;99.90
10249;DHT22;5169;50.560;9.714;2024-03-22T09:39:35;13.70;99.90
10249;DHT22;5169;50.560;9.714;2024-03-22T09:42:05;14.10;99.90
10249;DHT22;5169;50.560;9.714;2024-03-22T09:44:32;14.40;99.90
10249;DHT22;5169;50.560;9.714;2024-03-22T09:46:59;14.50;99.90
10249;DHT22;5169;50.560;9.714;2024-03-22T09:49:27;14.40;99.90
10249;DHT22;5169;50.560;9.714;2024-03-22T09:51:55;14.40;99.90
10249;DHT22;5169;50.560;9.714;2024-03-22T09:54:23;14.40;99.90
10249;DHT22;5169;50.560;9.714;2024-03-22T09:56:50;14.40;99.90
10249;DHT22;5169;50.560;9.714;2024-03-22T09:59:16;14.50;99.90
10249;DHT22;5169;50.560;9.714;2024-03-22T10:01:43;14.70;99.90
10249;DHT22;5169;50.560;9.714;2024-03-22T10:04:09;14.70;99.90
10249;DHT22;5169;50.560;9.714;2024-03-22T10:06:37;15.00;99.90
10249;DHT22;5169;50.560;9.714;2024-03-22T10:09:02;15.50;99.90
10249;DHT22;5169;50.560;9.714;2024-03-22T10:11:30;15.70;99.90
10249;DHT22;5169;50.560;9.714;2024-03-22T10:13:59;15.80;99.90
10249;DHT22;5169;50.560;9.714;2024-03-22T10:16:25;15.90;99.90
10249;DHT22;5169;50.560;9.714;2024-03-22T10:18:50;15.90;99.90
10249;DHT22;5169;50.560;9.714;2024-03-22T10:21:19;16.00;99.90
10249;DHT22;5169;50.560;9.714;2024-03-22T10:23:47;16.00;99.90
10249;DHT22;5169;50.560;9.714;2024-03-22T10:26:14;16.00;99.90
10249;DHT22;5169;50.560;9.714;2024-03-22T10:28:46;15.80;99.90
10249;DHT22;5169;50.560;9.714;2024-03-22T10:31:12;16.00;99.90
10249;DHT22;5169;50.560;9.714;2024-03-22T10:33:38;16.40;99.90
10249;DHT22;5169;50.560;9.714;2024-03-22T10:36:06;17.20;99.90
10249;DHT22;5169;50.560;9.714;2024-03-22T10:38:38;17.70;99.90
10249;DHT22;5169;50.560;9.714;2024-03-22T10:41:05;17.90;99.90
10249;DHT22;5169;50.560;9.714;2024-03-22T10:43:31;18.20;99.90
10249;DHT22;5169;50.560;9.714;2024-03-22T10:46:01;18.30;99.80
10249;DHT22;5169;50.560;9.714;2024-03-22T10:48:30;18.30;99.60
10249;DHT22;5169;50.560;9.714;2024-03-22T10:51:00;18.20;99.90
10249;DHT22;5169;50.560;9.714;2024-03-22T10:53:31;17.90;99.90
10249;DHT22;5169;50.560;9.714;2024-03-22T10:55:58;17.70;99.90
10249;DHT22;5169;50.560;9.714;2024-03-22T10:58:28;17.50;99.90
10249;DHT22;5169;50.560;9.714;2024-03-22T11:00:55;17.20;99.90
10249;DHT22;5169;50.560;9.714;2024-03-22T11:03:23;17.10;99.90
10249;DHT22;5169;50.560;9.714;2024-03-22T11:05:50;16.90;99.90
10249;DHT22;5169;50.560;9.714;2024-03-22T11:08:29;16.90;99.90
10249;DHT22;5169;50.560;9.714;2024-03-22T11:10:56;16.70;99.90
10249;DHT22;5169;50.560;9.714;2024-03-22T11:13:22;16.50;99.90
10249;DHT22;5169;50.560;9.714;2024-03-22T11:15:51;16.40;99.90
10249;DHT22;5169;50.560;9.714;2024-03-22T11:18:22;16.50;99.90
10249;DHT22;5169;50.560;9.714;2024-03-22T11:20:47;16.70;99.90
10249;DHT22;5169;50.560;9.714;2024-03-22T11:23:13;17.00;99.90
10249;DHT22;5169;50.560;9.714;2024-03-22T11:25:39;17.40;99.90
10249;DHT22;5169;50.560;9.714;2024-03-22T11:28:05;17.90;99.90
10249;DHT22;5169;50.560;9.714;2024-03-22T11:30:32;18.20;99.90
10249;DHT22;5169;50.560;9.714;2024-03-22T11:33:04;18.50;99.90
10249;DHT22;5169;50.560;9.714;2024-03-22T11:35:30;18.70;99.50
10249;DHT22;5169;50.560;9.714;2024-03-22T11:37:58;19.00;99.30
10249;DHT22;5169;50.560;9.714;2024-03-22T11:40:25;18.80;98.70
10249;DHT22;5169;50.560;9.714;2024-03-22T11:42:52;18.30;99.50
10249;DHT22;5169;50.560;9.714;2024-03-22T11:45:19;18.00;99.90
10249;DHT22;5169;50.560;9.714;2024-03-22T11:47:47;18.00;99.90
10249;DHT22;5169;50.560;9.714;2024-03-22T11:50:19;17.90;99.90
10249;DHT22;5169;50.560;9.714;2024-03-22T11:52:47;17.80;99.90
10249;DHT22;5169;50.560;9.714;2024-03-22T11:55:14;17.90;99.90
10249;DHT22;5169;50.560;9.714;2024-03-22T11:57:47;18.10;99.90
10249;DHT22;5169;50.560;9.714;2024-03-22T12:00:13;18.60;99.90
10249;DHT22;5169;50.560;9.714;2024-03-22T12:02:39;19.60;98.40
10249;DHT22;5169;50.560;9.714;2024-03-22T12:05:05;20.70;96.90
10249;DHT22;5169;50.560;9.714;2024-03-22T12:07:34;22.30;94.60
10249;DHT22;5169;50.560;9.714;2024-03-22T12:09:59;23.60;92.30
10249;DHT22;5169;50.560;9.714;2024-03-22T12:12:28;23.50;90.80
10249;DHT22;5169;50.560;9.714;2024-03-22T12:14:53;23.40;90.90
10249;DHT22;5169;50.560;9.714;2024-03-22T12:17:19;22.80;91.40
10249;DHT22;5169;50.560;9.714;2024-03-22T12:19:47;22.80;91.70
10249;DHT22;5169;50.560;9.714;2024-03-22T12:22:13;23.00;90.90
10249;DHT22;5169;50.560;9.714;2024-03-22T12:24:40;22.60;91.30
10249;DHT22;5169;50.560;9.714;2024-03-22T12:27:06;22.30;91.20
10249;DHT22;5169;50.560;9.714;2024-03-22T12:29:32;22.00;91.70
10249;DHT22;5169;50.560;9.714;2024-03-22T12:31:59;21.80;91.60
10249;DHT22;5169;50.560;9.714;2024-03-22T12:34:27;21.00;93.70
10249;DHT22;5169;50.560;9.714;2024-03-22T12:36:55;20.50;94.60
10249;DHT22;5169;50.560;9.714;2024-03-22T12:39:21;20.20;94.70
10249;DHT22;5169;50.560;9.714;2024-03-22T12:41:46;20.00;95.20
10249;DHT22;5169;50.560;9.714;2024-03-22T12:44:12;19.60;95.50
10249;DHT22;5169;50.560;9.714;2024-03-22T12:46:38;19.60;95.70
10249;DHT22;5169;50.560;9.714;2024-03-22T12:49:03;19.70;95.60
10249;DHT22;5169;50.560;9.714;2024-03-22T12:51:30;19.70;96.00
10249;DHT22;5169;50.560;9.714;2024-03-22T12:54:00;19.80;95.80
10249;DHT22;5169;50.560;9.714;2024-03-22T12:56:27;21.10;94.50
10249;DHT22;5169;50.560;9.714;2024-03-22T12:58:56;21.80;93.40
10249;DHT22;5169;50.560;9.714;2024-03-22T13:01:23;21.70;92.20
10249;DHT22;5169;50.560;9.714;2024-03-22T13:03:53;21.30;92.20
10249;DHT22;5169;50.560;9.714;2024-03-22T13:06:19;20.40;93.30
10249;DHT22;5169;50.560;9.714;2024-03-22T13:08:47;19.70;94.80
10249;DHT22;5169;50.560;9.714;2024-03-22T13:11:13;19.60;95.30
10249;DHT22;5169;50.560;9.714;2024-03-22T13:13:41;19.70;95.50
10249;DHT22;5169;50.560;9.714;2024-03-22T13:16:07;19.10;95.40
10249;DHT22;5169;50.560;9.714;2024-03-22T13:18:34;18.80;95.80
10249;DHT22;5169;50.560;9.714;2024-03-22T13:21:02;18.40;96.60
10249;DHT22;5169;50.560;9.714;2024-03-22T13:23:30;18.20;97.00
10249;DHT22;5169;50.560;9.714;2024-03-22T13:25:56;18.10;97.90
10249;DHT22;5169;50.560;9.714;2024-03-22T13:28:24;17.70;97.90
10249;DHT22;5169;50.560;9.714;2024-03-22T13:31:04;17.40;99.20
10249;DHT22;5169;50.560;9.714;2024-03-22T13:33:34;17.30;99.30
10249;DHT22;5169;50.560;9.714;2024-03-22T13:36:00;17.40;99.80
10249;DHT22;5169;50.560;9.714;2024-03-22T13:38:28;17.30;99.20
10249;DHT22;5169;50.560;9.714;2024-03-22T13:40:57;17.20;99.70
10249;DHT22;5169;50.560;9.714;2024-03-22T13:43:26;17.00;99.90
10249;DHT22;5169;50.560;9.714;2024-03-22T13:45:52;16.80;99.90
10249;DHT22;5169;50.560;9.714;2024-03-22T13:48:22;16.60;99.90
10249;DHT22;5169;50.560;9.714;2024-03-22T13:50:54;16.50;99.90
10249;DHT22;5169;50.560;9.714;2024-03-22T13:53:21;16.50;99.90
10249;DHT22;5169;50.560;9.714;2024-03-22T13:55:50;16.50;99.90
10249;DHT22;5169;50.560;9.714;2024-03-22T13:58:16;16.60;99.90
10249;DHT22;5169;50.560;9.714;2024-03-22T14:00:42;16.60;99.90
10249;DHT22;5169;50.560;9.714;2024-03-22T14:03:07;16.70;99.90
10249;DHT22;5169;50.560;9.714;2024-03-22T14:05:33;16.50;99.90
10249;DHT22;5169;50.560;9.714;2024-03-22T14:08:02;16.50;99.90
10249;DHT22;5169;50.560;9.714;2024-03-22T14:10:30;16.30;99.90
10249;DHT22;5169;50.560;9.714;2024-03-22T14:13:01;16.30;99.90
10249;DHT22;5169;50.560;9.714;2024-03-22T14:15:27;16.30;99.90
10249;DHT22;5169;50.560;9.714;2024-03-22T14:17:57;16.20;99.90
10249;DHT22;5169;50.560;9.714;2024-03-22T14:20:23;16.00;99.90
10249;DHT22;5169;50.560;9.714;2024-03-22T14:22:48;15.80;99.90
10249;DHT22;5169;50.560;9.714;2024-03-22T14:25:14;15.80;99.90
10249;DHT22;5169;50.560;9.714;2024-03-22T14:27:40;15.70;99.90
10249;DHT22;5169;50.560;9.714;2024-03-22T14:30:10;15.70;99.90
10249;DHT22;5169;50.560;9.714;2024-03-22T14:32:38;15.60;99.90
10249;DHT22;5169;50.560;9.714;2024-03-22T14:35:04;15.60;99.90
10249;DHT22;5169;50.560;9.714;2024-03-22T14:37:30;15.60;99.90
10249;DHT22;5169;50.560;9.714;2024-03-22T14:39:58;15.60;99.90
10249;DHT22;5169;50.560;9.714;2024-03-22T14:42:24;15.60;99.90
10249;DHT22;5169;50.560;9.714;2024-03-22T14:44:49;15.60;99.90
10249;DHT22;5169;50.560;9.714;2024-03-22T14:47:15;15.50;99.90
10249;DHT22;5169;50.560;9.714;2024-03-22T14:49:44;15.40;99.90
10249;DHT22;5169;50.560;9.714;2024-03-22T14:52:10;15.30;99.90
10249;DHT22;5169;50.560;9.714;2024-03-22T14:54:40;15.20;99.90
10249;DHT22;5169;50.560;9.714;2024-03-22T14:57:05;15.20;99.90
10249;DHT22;5169;50.560;9.714;2024-03-22T14:59:31;15.30;99.90
10249;DHT22;5169;50.560;9.714;2024-03-22T15:01:57;15.40;99.90
10249;DHT22;5169;50.560;9.714;2024-03-22T15:04:23;15.40;99.90
10249;DHT22;5169;50.560;9.714;2024-03-22T15:06:49;15.40;99.90
10249;DHT22;5169;50.560;9.714;2024-03-22T15:09:17;15.30;99.90
10249;DHT22;5169;50.560;9.714;2024-03-22T15:11:44;15.30;99.90
10249;DHT22;5169;50.560;9.714;2024-03-22T15:14:12;15.30;99.90
10249;DHT22;5169;50.560;9.714;2024-03-22T15:16:41;15.20;99.90
10249;DHT22;5169;50.560;9.714;2024-03-22T15:19:10;15.20;99.90
10249;DHT22;5169;50.560;9.714;2024-03-22T15:21:37;15.20;99.90
10249;DHT22;5169;50.560;9.714;2024-03-22T15:24:03;15.20;99.90
10249;DHT22;5169;50.560;9.714;2024-03-22T15:26:31;15.20;99.90
10249;DHT22;5169;50.560;9.714;2024-03-22T15:28:57;15.20;99.90
10249;DHT22;5169;50.560;9.714;2024-03-22T15:31:24;15.10;99.90
10249;DHT22;5169;50.560;9.714;2024-03-22T15:33:50;15.10;99.90
10249;DHT22;5169;50.560;9.714;2024-03-22T15:36:16;15.20;99.90
10249;DHT22;5169;50.560;9.714;2024-03-22T15:38:41;15.20;99.90
10249;DHT22;5169;50.560;9.714;2024-03-22T15:41:07;15.10;99.90
10249;DHT22;5169;50.560;9.714;2024-03-22T15:43:36;15.00;99.90
10249;DHT22;5169;50.560;9.714;2024-03-22T15:46:01;15.00;99.90
10249;DHT22;5169;50.560;9.714;2024-03-22T15:48:27;14.90;99.90
10249;DHT22;5169;50.560;9.714;2024-03-22T15:50:52;14.90;99.90
10249;DHT22;5169;50.560;9.714;2024-03-22T15:53:21;14.90;99.90